createdAt,value
2018-12-03T00:07:18.588Z,8.2
2018-12-03T00:17:32.398Z,5.3
2018-12-03T00:27:46.722Z,6.3
2018-12-03T00:38:00.425Z,5.2
2018-12-03T00:48:14.817Z,7.1
2018-12-03T00:58:29.094Z,6.3
2018-12-03T01:09:15.847Z,5.9
2018-12-03T01:20:01.503Z,6.3
2018-12-03T01:30:49.819Z,7.7
2018-12-03T01:41:34.941Z,7.1
2018-12-03T01:51:50.052Z,4.5
2018-12-03T02:02:03.616Z,5.4
2018-12-03T02:12:58.264Z,7.7
2018-12-03T02:23:44.828Z,9.6
2018-12-03T02:33:58.696Z,4.7
2018-12-03T02:44:10.866Z,4.2
2018-12-03T02:54:56.298Z,3.9
2018-12-03T03:05:42.167Z,3.9
2018-12-03T03:16:46.338Z,3.1
2018-12-03T03:27:00.239Z,2.3
2018-12-03T03:37:14.276Z,1.8
2018-12-03T03:47:32.419Z,3.6
2018-12-03T03:57:57.115Z,4.4
2018-12-03T04:19:51.450Z,6.1
2018-12-03T04:42:18.939Z,3.0
2018-12-03T04:52:31.433Z,2.5
2018-12-03T05:02:45.778Z,1.1
2018-12-03T05:12:57.715Z,1.6
2018-12-03T05:23:26.268Z,2.9
2018-12-03T05:33:39.960Z,4.4
2018-12-03T05:56:36.848Z,3.7
2018-12-03T06:07:36.112Z,5.1
2018-12-03T06:18:13.442Z,2.8
2018-12-03T06:29:00.649Z,1.5
2018-12-03T06:39:15.431Z,1.9
2018-12-03T06:50:04.682Z,1.4
2018-12-03T07:00:55.633Z,1.5
2018-12-03T07:11:07.940Z,2.1
2018-12-03T07:21:57.617Z,3.2
2018-12-03T07:32:12.359Z,2.8
2018-12-03T07:43:05.773Z,2.5
2018-12-03T07:53:56.511Z,1.3
2018-12-03T08:04:50.257Z,2.4
2018-12-03T08:15:38.175Z,2.4
2018-12-03T08:25:52.145Z,1.7
2018-12-03T08:36:03.387Z,3.1
2018-12-03T08:46:15.600Z,3.1
2018-12-03T08:57:38.012Z,1.7
2018-12-03T09:08:40.138Z,3.1
2018-12-03T09:18:54.441Z,2.7
2018-12-03T09:29:42.362Z,3.5
2018-12-03T09:39:56.427Z,1.8
2018-12-03T09:50:08.131Z,3.7
2018-12-03T10:00:55.601Z,2.6
2018-12-03T10:11:42.993Z,3.1
2018-12-03T10:22:32.031Z,2.3
2018-12-03T10:33:23.649Z,2.1
2018-12-03T10:44:10.826Z,2.9
2018-12-03T10:55:31.717Z,2.1
2018-12-03T11:05:46.715Z,2.6
2018-12-03T11:16:05.091Z,2.8
2018-12-03T11:27:52.671Z,1.4
2018-12-03T11:38:23.968Z,2.5
2018-12-03T11:48:56.335Z,2.4
2018-12-03T11:59:57.085Z,1.9
2018-12-03T12:10:14.529Z,1.3
2018-12-03T12:20:28.665Z,2.5
2018-12-03T12:31:16.408Z,1.8
2018-12-03T12:41:45.165Z,3.9
2018-12-03T12:52:19.279Z,2.0
2018-12-03T13:02:33.889Z,3.9
2018-12-03T13:12:47.938Z,2.9
2018-12-03T13:23:02.979Z,2.3
2018-12-03T13:33:17.464Z,3.0
2018-12-03T13:44:03.639Z,5.0
2018-12-03T13:55:17.020Z,5.1
2018-12-03T14:06:19.963Z,3.9
2018-12-03T14:17:05.048Z,3.6
2018-12-03T14:27:55.154Z,2.6
2018-12-03T14:38:52.288Z,2.4
2018-12-03T14:49:33.380Z,2.1
2018-12-03T15:00:29.311Z,3.3
2018-12-03T15:11:14.359Z,2.6
2018-12-03T15:22:12.870Z,2.9
2018-12-03T15:32:35.722Z,2.1
2018-12-03T15:43:00.586Z,3.0
2018-12-03T15:54:01.078Z,4.0
2018-12-03T16:04:54.219Z,4.3
2018-12-03T16:15:09.111Z,4.1
2018-12-03T16:25:59.075Z,5.0
2018-12-03T16:36:44.031Z,3.7
2018-12-03T16:47:02.806Z,1.6
2018-12-03T16:57:28.355Z,2.9
2018-12-03T17:08:02.411Z,2.5
2018-12-03T17:18:33.000Z,3.1
2018-12-03T17:28:52.354Z,2.5
2018-12-03T17:40:03.530Z,4.6
2018-12-03T17:50:42.693Z,3.2
2018-12-03T18:01:32.374Z,2.8
2018-12-03T18:13:15.181Z,1.0
2018-12-03T18:24:19.000Z,3.6
2018-12-03T18:35:07.196Z,6.3
2018-12-03T18:46:04.913Z,6.3
2018-12-03T18:57:31.523Z,6.0
2018-12-03T19:07:52.796Z,2.5
2018-12-03T19:18:16.232Z,3.1
2018-12-03T19:28:29.986Z,3.1
2018-12-03T19:41:30.570Z,8.2
2018-12-03T19:52:37.588Z,6.3
2018-12-03T20:04:42.226Z,10.0
2018-12-03T20:15:44.929Z,7.7
2018-12-03T20:34:08.566Z,7.1
2018-12-03T20:52:04.158Z,7.8
2018-12-03T21:22:44.687Z,1.6
2018-12-03T21:32:57.926Z,1.9
2018-12-03T21:43:12.245Z,2.3
2018-12-03T21:53:27.455Z,2.2
2018-12-03T22:03:41.320Z,0.7
2018-12-03T22:14:28.168Z,1.1
2018-12-03T22:24:41.608Z,0.9
2018-12-03T22:34:54.707Z,0.7
2018-12-03T22:45:05.872Z,1.0
2018-12-03T22:55:19.225Z,1.2
2018-12-03T23:05:32.315Z,0.8
2018-12-03T23:15:45.698Z,0.7
2018-12-03T23:25:59.910Z,0.6
2018-12-03T23:36:14.099Z,1.5
2018-12-03T23:46:28.133Z,1.2
2018-12-03T23:56:41.307Z,1.0
